sensor_id;sensor_type;location;lat;lon;timestamp;pressure;altitude;pressure_sealevel;temperature;humidity
72587;BME280;60621;49.576;11.024;2023-02-21T00:00:34;98777.06;;;9.23;64.25
72587;BME280;60621;49.576;11.024;2023-02-21T00:01:54;98776.97;;;9.20;64.41
72587;BME280;60621;49.576;11.024;2023-02-21T00:03:14;98775.25;;;9.00;64.59
72587;BME280;60621;49.576;11.024;2023-02-21T00:04:35;98773.97;;;8.93;65.33
72587;BME280;60621;49.576;11.024;2023-02-21T00:05:54;98774.06;;;8.97;64.84
72587;BME280;60621;49.576;11.024;2023-02-21T00:07:15;98764.31;;;8.85;65.01
72587;BME280;60621;49.576;11.024;2023-02-21T00:08:35;98764.97;;;8.82;65.54
72587;BME280;60621;49.576;11.024;2023-02-21T00:09:55;98756.19;;;8.90;64.63
72587;BME280;60621;49.576;11.024;2023-02-21T00:11:15;98761.34;;;8.99;65.12
72587;BME280;60621;49.576;11.024;2023-02-21T00:12:35;98766.25;;;9.01;65.03
72587;BME280;60621;49.576;11.024;2023-02-21T00:13:55;98755.19;;;9.07;64.50
72587;BME280;60621;49.576;11.024;2023-02-21T00:15:14;98757.31;;;8.89;65.44
72587;BME280;60621;49.576;11.024;2023-02-21T00:16:35;98754.44;;;8.82;65.48
72587;BME280;60621;49.576;11.024;2023-02-21T00:17:55;98751.34;;;8.92;65.53
72587;BME280;60621;49.576;11.024;2023-02-21T00:19:15;98746.97;;;8.96;65.06
72587;BME280;60621;49.576;11.024;2023-02-21T00:20:35;98746.38;;;8.75;65.45
72587;BME280;60621;49.576;11.024;2023-02-21T00:21:56;98747.25;;;8.67;66.05
72587;BME280;60621;49.576;11.024;2023-02-21T00:23:16;98737.81;;;8.54;65.85
72587;BME280;60621;49.576;11.024;2023-02-21T00:24:36;98741.22;;;8.66;65.85
72587;BME280;60621;49.576;11.024;2023-02-21T00:25:56;98742.63;;;8.76;65.08
72587;BME280;60621;49.576;11.024;2023-02-21T00:27:15;98740.44;;;8.54;65.79
72587;BME280;60621;49.576;11.024;2023-02-21T00:28:36;98737.06;;;8.41;66.27
72587;BME280;60621;49.576;11.024;2023-02-21T00:29:56;98742.41;;;8.32;66.53
72587;BME280;60621;49.576;11.024;2023-02-21T00:31:19;98745.25;;;8.39;66.40
72587;BME280;60621;49.576;11.024;2023-02-21T00:32:39;98749.06;;;8.30;66.52
72587;BME280;60621;49.576;11.024;2023-02-21T00:33:59;98738.06;;;8.36;66.44
72587;BME280;60621;49.576;11.024;2023-02-21T00:35:19;98741.66;;;8.44;66.23
72587;BME280;60621;49.576;11.024;2023-02-21T00:36:39;98733.47;;;8.45;66.14
72587;BME280;60621;49.576;11.024;2023-02-21T00:37:59;98727.19;;;8.38;66.41
72587;BME280;60621;49.576;11.024;2023-02-21T00:39:19;98732.06;;;8.15;67.64
72587;BME280;60621;49.576;11.024;2023-02-21T00:40:40;98735.50;;;8.28;67.03
72587;BME280;60621;49.576;11.024;2023-02-21T00:42:00;98728.03;;;8.30;66.84
72587;BME280;60621;49.576;11.024;2023-02-21T00:43:29;98730.13;;;8.24;66.79
72587;BME280;60621;49.576;11.024;2023-02-21T00:44:50;98732.88;;;8.28;66.49
72587;BME280;60621;49.576;11.024;2023-02-21T00:46:10;98734.28;;;8.25;67.32
72587;BME280;60621;49.576;11.024;2023-02-21T00:47:30;98729.22;;;8.20;66.94
72587;BME280;60621;49.576;11.024;2023-02-21T00:48:49;98731.22;;;8.23;66.77
72587;BME280;60621;49.576;11.024;2023-02-21T00:50:09;98723.97;;;8.08;67.28
72587;BME280;60621;49.576;11.024;2023-02-21T00:51:29;98728.22;;;8.00;67.47
72587;BME280;60621;49.576;11.024;2023-02-21T00:52:49;98725.25;;;7.89;67.97
72587;BME280;60621;49.576;11.024;2023-02-21T00:54:09;98722.72;;;7.81;68.47
72587;BME280;60621;49.576;11.024;2023-02-21T00:55:29;98717.25;;;7.86;67.85
72587;BME280;60621;49.576;11.024;2023-02-21T00:56:49;98720.44;;;7.79;68.28
72587;BME280;60621;49.576;11.024;2023-02-21T00:58:09;98725.22;;;7.77;67.80
72587;BME280;60621;49.576;11.024;2023-02-21T00:59:29;98720.06;;;7.68;68.74
72587;BME280;60621;49.576;11.024;2023-02-21T01:00:49;98721.28;;;7.71;68.75
72587;BME280;60621;49.576;11.024;2023-02-21T01:02:10;98720.94;;;7.73;68.30
72587;BME280;60621;49.576;11.024;2023-02-21T01:03:30;98714.84;;;7.81;68.67
72587;BME280;60621;49.576;11.024;2023-02-21T01:04:52;98717.13;;;7.82;68.35
72587;BME280;60621;49.576;11.024;2023-02-21T01:06:12;98713.94;;;7.77;68.48
72587;BME280;60621;49.576;11.024;2023-02-21T01:07:32;98715.25;;;7.70;68.46
72587;BME280;60621;49.576;11.024;2023-02-21T01:08:52;98714.16;;;7.72;68.63
72587;BME280;60621;49.576;11.024;2023-02-21T01:10:13;98720.03;;;7.56;69.42
72587;BME280;60621;49.576;11.024;2023-02-21T01:11:33;98724.19;;;7.57;69.51
72587;BME280;60621;49.576;11.024;2023-02-21T01:12:53;98719.69;;;7.58;69.25
72587;BME280;60621;49.576;11.024;2023-02-21T01:14:13;98721.63;;;7.49;69.95
72587;BME280;60621;49.576;11.024;2023-02-21T01:15:34;98729.16;;;7.38;69.46
72587;BME280;60621;49.576;11.024;2023-02-21T01:16:54;98720.84;;;7.36;70.13
72587;BME280;60621;49.576;11.024;2023-02-21T01:18:14;98722.56;;;7.32;69.79
72587;BME280;60621;49.576;11.024;2023-02-21T01:19:34;98724.44;;;7.31;69.46
72587;BME280;60621;49.576;11.024;2023-02-21T01:20:54;98722.97;;;7.22;70.21
72587;BME280;60621;49.576;11.024;2023-02-21T01:22:15;98717.63;;;7.30;69.48
72587;BME280;60621;49.576;11.024;2023-02-21T01:23:35;98717.13;;;7.16;69.92
72587;BME280;60621;49.576;11.024;2023-02-21T01:24:55;98718.91;;;7.24;69.48
72587;BME280;60621;49.576;11.024;2023-02-21T01:26:15;98719.94;;;7.32;69.14
72587;BME280;60621;49.576;11.024;2023-02-21T01:27:35;98717.53;;;7.27;69.71
72587;BME280;60621;49.576;11.024;2023-02-21T01:28:56;98711.75;;;7.33;69.20
72587;BME280;60621;49.576;11.024;2023-02-21T01:30:16;98717.19;;;7.28;68.94
72587;BME280;60621;49.576;11.024;2023-02-21T01:31:36;98717.06;;;7.25;69.26
72587;BME280;60621;49.576;11.024;2023-02-21T01:32:56;98723.75;;;7.34;68.72
72587;BME280;60621;49.576;11.024;2023-02-21T01:34:17;98722.16;;;7.42;68.67
72587;BME280;60621;49.576;11.024;2023-02-21T01:35:36;98721.50;;;7.45;68.22
72587;BME280;60621;49.576;11.024;2023-02-21T01:36:56;98724.72;;;7.51;68.08
72587;BME280;60621;49.576;11.024;2023-02-21T01:38:16;98717.16;;;7.49;67.69
72587;BME280;60621;49.576;11.024;2023-02-21T01:39:37;98720.09;;;7.48;67.85
72587;BME280;60621;49.576;11.024;2023-02-21T01:40:57;98719.53;;;7.42;68.15
72587;BME280;60621;49.576;11.024;2023-02-21T01:42:17;98718.31;;;7.39;68.69
72587;BME280;60621;49.576;11.024;2023-02-21T01:43:37;98715.19;;;7.25;68.39
72587;BME280;60621;49.576;11.024;2023-02-21T01:46:40;98705.50;;;6.84;70.21
72587;BME280;60621;49.576;11.024;2023-02-21T01:48:00;98713.22;;;6.80;70.39
72587;BME280;60621;49.576;11.024;2023-02-21T01:49:21;98705.78;;;6.82;69.77
72587;BME280;60621;49.576;11.024;2023-02-21T01:50:41;98715.22;;;6.54;70.96
72587;BME280;60621;49.576;11.024;2023-02-21T01:52:02;98707.03;;;6.26;72.28
72587;BME280;60621;49.576;11.024;2023-02-21T01:53:24;98709.78;;;6.29;72.03
72587;BME280;60621;49.576;11.024;2023-02-21T01:54:48;98715.56;;;6.14;72.52
72587;BME280;60621;49.576;11.024;2023-02-21T01:56:09;98715.25;;;6.07;72.69
72587;BME280;60621;49.576;11.024;2023-02-21T01:57:30;98708.03;;;6.12;72.84
72587;BME280;60621;49.576;11.024;2023-02-21T01:58:54;98709.72;;;6.08;72.40
72587;BME280;60621;49.576;11.024;2023-02-21T02:00:16;98708.06;;;5.95;73.35
72587;BME280;60621;49.576;11.024;2023-02-21T02:01:49;98704.69;;;5.86;73.44
72587;BME280;60621;49.576;11.024;2023-02-21T02:03:14;98708.22;;;5.90;73.53
72587;BME280;60621;49.576;11.024;2023-02-21T02:04:35;98702.53;;;5.97;73.11
72587;BME280;60621;49.576;11.024;2023-02-21T02:06:04;98697.09;;;6.02;73.18
72587;BME280;60621;49.576;11.024;2023-02-21T02:07:25;98699.25;;;6.08;73.83
72587;BME280;60621;49.576;11.024;2023-02-21T02:08:45;98694.28;;;6.15;72.60
72587;BME280;60621;49.576;11.024;2023-02-21T02:10:07;98700.75;;;6.18;73.20
72587;BME280;60621;49.576;11.024;2023-02-21T02:13:32;98697.22;;;6.14;72.58
72587;BME280;60621;49.576;11.024;2023-02-21T02:17:09;98705.44;;;6.04;73.71
72587;BME280;60621;49.576;11.024;2023-02-21T02:19:46;98698.94;;;6.10;73.18
72587;BME280;60621;49.576;11.024;2023-02-21T02:21:27;98697.28;;;5.88;73.40
72587;BME280;60621;49.576;11.024;2023-02-21T02:27:45;98703.78;;;5.82;73.46
72587;BME280;60621;49.576;11.024;2023-02-21T02:32:37;98703.59;;;6.04;72.82
72587;BME280;60621;49.576;11.024;2023-02-21T02:36:28;98704.50;;;6.08;71.92
72587;BME280;60621;49.576;11.024;2023-02-21T02:37:40;98695.56;;;6.09;72.57
72587;BME280;60621;49.576;11.024;2023-02-21T02:38:56;98702.31;;;6.10;72.64
72587;BME280;60621;49.576;11.024;2023-02-21T02:41:32;98697.00;;;6.28;71.63
72587;BME280;60621;49.576;11.024;2023-02-21T02:42:46;98699.63;;;6.28;71.61
72587;BME280;60621;49.576;11.024;2023-02-21T02:45:06;98706.56;;;6.32;70.87
72587;BME280;60621;49.576;11.024;2023-02-21T02:46:16;98697.97;;;6.23;71.06
72587;BME280;60621;49.576;11.024;2023-02-21T02:47:27;98705.16;;;6.26;71.29
72587;BME280;60621;49.576;11.024;2023-02-21T02:48:37;98700.59;;;6.23;71.31
72587;BME280;60621;49.576;11.024;2023-02-21T02:49:42;98702.88;;;6.25;71.36
72587;BME280;60621;49.576;11.024;2023-02-21T02:50:46;98699.53;;;6.15;71.22
72587;BME280;60621;49.576;11.024;2023-02-21T02:51:49;98702.63;;;6.18;71.24
72587;BME280;60621;49.576;11.024;2023-02-21T02:52:52;98703.97;;;6.24;71.22
72587;BME280;60621;49.576;11.024;2023-02-21T02:53:54;98705.97;;;6.27;71.02
72587;BME280;60621;49.576;11.024;2023-02-21T02:55:02;98697.06;;;6.19;70.91
72587;BME280;60621;49.576;11.024;2023-02-21T02:56:06;98696.91;;;6.15;70.96
72587;BME280;60621;49.576;11.024;2023-02-21T02:57:11;98698.03;;;6.06;71.21
72587;BME280;60621;49.576;11.024;2023-02-21T02:58:14;98700.63;;;6.06;71.31
72587;BME280;60621;49.576;11.024;2023-02-21T02:59:20;98704.84;;;5.98;71.26
72587;BME280;60621;49.576;11.024;2023-02-21T03:00:23;98701.75;;;5.96;71.63
72587;BME280;60621;49.576;11.024;2023-02-21T03:02:49;98701.31;;;5.85;71.95
72587;BME280;60621;49.576;11.024;2023-02-21T03:05:13;98687.44;;;5.85;71.96
72587;BME280;60621;49.576;11.024;2023-02-21T03:07:58;98688.09;;;5.73;72.28
72587;BME280;60621;49.576;11.024;2023-02-21T03:09:25;98688.56;;;5.67;73.08
72587;BME280;60621;49.576;11.024;2023-02-21T03:10:37;98693.16;;;5.70;73.37
72587;BME280;60621;49.576;11.024;2023-02-21T03:11:51;98691.00;;;5.80;72.83
72587;BME280;60621;49.576;11.024;2023-02-21T03:13:12;98687.31;;;5.73;73.10
72587;BME280;60621;49.576;11.024;2023-02-21T03:14:18;98696.88;;;5.69;73.14
72587;BME280;60621;49.576;11.024;2023-02-21T03:15:28;98701.00;;;5.70;74.09
72587;BME280;60621;49.576;11.024;2023-02-21T03:16:55;98695.66;;;5.66;74.57
72587;BME280;60621;49.576;11.024;2023-02-21T03:19:30;98697.91;;;5.85;74.55
72587;BME280;60621;49.576;11.024;2023-02-21T03:20:34;98696.06;;;5.94;73.96
72587;BME280;60621;49.576;11.024;2023-02-21T03:21:52;98699.72;;;6.02;74.16
72587;BME280;60621;49.576;11.024;2023-02-21T03:22:56;98697.00;;;5.98;73.67
72587;BME280;60621;49.576;11.024;2023-02-21T03:23:59;98693.25;;;6.08;73.68
72587;BME280;60621;49.576;11.024;2023-02-21T03:25:03;98696.47;;;6.13;73.47
72587;BME280;60621;49.576;11.024;2023-02-21T03:26:07;98698.56;;;6.20;73.19
72587;BME280;60621;49.576;11.024;2023-02-21T03:27:10;98698.41;;;6.25;73.00
72587;BME280;60621;49.576;11.024;2023-02-21T03:28:13;98696.84;;;6.33;72.34
72587;BME280;60621;49.576;11.024;2023-02-21T03:29:15;98705.91;;;6.35;72.66
72587;BME280;60621;49.576;11.024;2023-02-21T03:30:18;98701.28;;;6.41;72.52
72587;BME280;60621;49.576;11.024;2023-02-21T03:31:23;98709.38;;;6.48;72.18
72587;BME280;60621;49.576;11.024;2023-02-21T03:32:30;98711.47;;;6.34;71.78
72587;BME280;60621;49.576;11.024;2023-02-21T03:33:33;98699.47;;;6.33;71.93
72587;BME280;60621;49.576;11.024;2023-02-21T03:34:36;98704.03;;;6.36;71.85
72587;BME280;60621;49.576;11.024;2023-02-21T03:35:39;98703.94;;;6.32;71.91
72587;BME280;60621;49.576;11.024;2023-02-21T03:36:41;98705.28;;;6.38;71.46
72587;BME280;60621;49.576;11.024;2023-02-21T03:37:52;98698.81;;;6.36;71.66
72587;BME280;60621;49.576;11.024;2023-02-21T03:38:54;98707.31;;;6.33;71.64
72587;BME280;60621;49.576;11.024;2023-02-21T03:39:56;98707.47;;;6.36;71.34
72587;BME280;60621;49.576;11.024;2023-02-21T03:40:57;98711.75;;;6.41;71.61
72587;BME280;60621;49.576;11.024;2023-02-21T03:41:59;98707.28;;;6.41;71.18
72587;BME280;60621;49.576;11.024;2023-02-21T03:43:02;98707.72;;;6.44;71.08
72587;BME280;60621;49.576;11.024;2023-02-21T03:44:04;98703.56;;;6.43;71.02
72587;BME280;60621;49.576;11.024;2023-02-21T03:45:06;98705.25;;;6.47;71.05
72587;BME280;60621;49.576;11.024;2023-02-21T03:46:07;98707.88;;;6.47;70.86
72587;BME280;60621;49.576;11.024;2023-02-21T03:47:09;98705.25;;;6.47;71.20
72587;BME280;60621;49.576;11.024;2023-02-21T03:48:10;98703.44;;;6.39;72.02
72587;BME280;60621;49.576;11.024;2023-02-21T03:49:15;98696.97;;;6.36;72.03
72587;BME280;60621;49.576;11.024;2023-02-21T03:50:17;98697.53;;;6.51;71.69
72587;BME280;60621;49.576;11.024;2023-02-21T03:51:19;98701.50;;;6.57;71.63
72587;BME280;60621;49.576;11.024;2023-02-21T03:52:20;98696.19;;;6.65;71.06
72587;BME280;60621;49.576;11.024;2023-02-21T03:53:22;98690.31;;;6.68;70.94
72587;BME280;60621;49.576;11.024;2023-02-21T03:54:23;98688.38;;;6.57;71.03
72587;BME280;60621;49.576;11.024;2023-02-21T03:55:26;98689.91;;;6.58;71.66
72587;BME280;60621;49.576;11.024;2023-02-21T03:56:27;98687.28;;;6.58;71.44
72587;BME280;60621;49.576;11.024;2023-02-21T03:57:42;98692.72;;;6.53;72.28
72587;BME280;60621;49.576;11.024;2023-02-21T03:58:43;98691.00;;;6.57;72.41
72587;BME280;60621;49.576;11.024;2023-02-21T03:59:45;98694.53;;;6.61;71.78
72587;BME280;60621;49.576;11.024;2023-02-21T04:00:47;98686.84;;;6.56;72.38
72587;BME280;60621;49.576;11.024;2023-02-21T04:01:49;98696.09;;;6.53;72.57
72587;BME280;60621;49.576;11.024;2023-02-21T04:02:50;98698.09;;;6.56;72.41
72587;BME280;60621;49.576;11.024;2023-02-21T04:03:52;98699.81;;;6.52;72.86
72587;BME280;60621;49.576;11.024;2023-02-21T04:04:54;98705.97;;;6.56;72.91
72587;BME280;60621;49.576;11.024;2023-02-21T04:05:55;98702.69;;;6.59;72.75
72587;BME280;60621;49.576;11.024;2023-02-21T04:06:57;98698.81;;;6.65;72.90
72587;BME280;60621;49.576;11.024;2023-02-21T04:07:58;98705.06;;;6.73;72.67
72587;BME280;60621;49.576;11.024;2023-02-21T04:09:00;98693.81;;;6.73;72.39
72587;BME280;60621;49.576;11.024;2023-02-21T04:10:02;98705.06;;;6.73;71.52
72587;BME280;60621;49.576;11.024;2023-02-21T04:11:03;98707.25;;;6.71;72.20
72587;BME280;60621;49.576;11.024;2023-02-21T04:12:05;98700.31;;;6.75;72.04
72587;BME280;60621;49.576;11.024;2023-02-21T04:13:07;98700.94;;;6.72;72.42
72587;BME280;60621;49.576;11.024;2023-02-21T04:14:09;98694.78;;;6.68;72.75
72587;BME280;60621;49.576;11.024;2023-02-21T04:15:11;98699.59;;;6.66;72.90
72587;BME280;60621;49.576;11.024;2023-02-21T04:16:13;98696.00;;;6.71;72.72
72587;BME280;60621;49.576;11.024;2023-02-21T04:17:14;98702.28;;;6.78;72.24
72587;BME280;60621;49.576;11.024;2023-02-21T04:18:16;98702.88;;;6.84;71.94
72587;BME280;60621;49.576;11.024;2023-02-21T04:19:18;98698.38;;;6.84;72.21
72587;BME280;60621;49.576;11.024;2023-02-21T04:20:20;98695.56;;;6.89;72.35
72587;BME280;60621;49.576;11.024;2023-02-21T04:21:21;98698.44;;;6.97;71.87
72587;BME280;60621;49.576;11.024;2023-02-21T04:22:23;98695.81;;;6.97;71.45
72587;BME280;60621;49.576;11.024;2023-02-21T04:23:24;98688.41;;;6.99;71.52
72587;BME280;60621;49.576;11.024;2023-02-21T04:24:26;98689.81;;;6.96;71.60
72587;BME280;60621;49.576;11.024;2023-02-21T04:25:27;98689.38;;;6.94;71.50
72587;BME280;60621;49.576;11.024;2023-02-21T04:26:29;98692.44;;;6.96;71.22
72587;BME280;60621;49.576;11.024;2023-02-21T04:27:30;98687.81;;;6.93;71.78
72587;BME280;60621;49.576;11.024;2023-02-21T04:28:32;98686.84;;;6.98;71.42
72587;BME280;60621;49.576;11.024;2023-02-21T04:29:34;98686.41;;;6.96;71.60
72587;BME280;60621;49.576;11.024;2023-02-21T04:30:35;98691.66;;;6.96;71.63
72587;BME280;60621;49.576;11.024;2023-02-21T04:31:37;98686.56;;;6.99;71.38
72587;BME280;60621;49.576;11.024;2023-02-21T04:32:39;98692.50;;;6.87;71.48
72587;BME280;60621;49.576;11.024;2023-02-21T04:33:40;98679.94;;;6.93;71.82
72587;BME280;60621;49.576;11.024;2023-02-21T04:34:42;98691.34;;;6.97;71.48
72587;BME280;60621;49.576;11.024;2023-02-21T04:35:43;98686.09;;;6.97;71.57
72587;BME280;60621;49.576;11.024;2023-02-21T04:36:45;98685.25;;;7.05;71.19
72587;BME280;60621;49.576;11.024;2023-02-21T04:37:46;98688.78;;;7.09;71.26
72587;BME280;60621;49.576;11.024;2023-02-21T04:38:48;98694.16;;;7.13;71.06
72587;BME280;60621;49.576;11.024;2023-02-21T04:39:51;98687.97;;;7.17;70.77
72587;BME280;60621;49.576;11.024;2023-02-21T04:40:52;98690.44;;;7.14;70.09
72587;BME280;60621;49.576;11.024;2023-02-21T04:41:54;98687.25;;;7.08;70.89
72587;BME280;60621;49.576;11.024;2023-02-21T04:42:55;98681.81;;;7.13;71.06
72587;BME280;60621;49.576;11.024;2023-02-21T04:43:56;98688.91;;;7.13;70.63
72587;BME280;60621;49.576;11.024;2023-02-21T04:44:58;98686.41;;;7.16;70.70
72587;BME280;60621;49.576;11.024;2023-02-21T04:46:02;98685.34;;;7.17;70.47
72587;BME280;60621;49.576;11.024;2023-02-21T04:47:04;98681.06;;;7.13;71.23
72587;BME280;60621;49.576;11.024;2023-02-21T04:48:05;98679.63;;;7.15;71.08
72587;BME280;60621;49.576;11.024;2023-02-21T04:49:07;98677.34;;;7.14;70.74
72587;BME280;60621;49.576;11.024;2023-02-21T04:50:08;98685.19;;;7.14;70.46
72587;BME280;60621;49.576;11.024;2023-02-21T04:51:14;98687.97;;;7.17;70.23
72587;BME280;60621;49.576;11.024;2023-02-21T04:52:17;98677.97;;;7.11;70.18
72587;BME280;60621;49.576;11.024;2023-02-21T04:53:21;98676.88;;;7.12;70.91
72587;BME280;60621;49.576;11.024;2023-02-21T04:54:23;98676.69;;;7.17;70.90
72587;BME280;60621;49.576;11.024;2023-02-21T04:55:24;98679.31;;;7.17;70.41
72587;BME280;60621;49.576;11.024;2023-02-21T04:56:26;98672.00;;;7.23;70.31
72587;BME280;60621;49.576;11.024;2023-02-21T04:57:29;98673.28;;;7.16;70.58
72587;BME280;60621;49.576;11.024;2023-02-21T04:58:30;98670.09;;;7.11;70.40
72587;BME280;60621;49.576;11.024;2023-02-21T04:59:45;98669.78;;;7.12;70.87
72587;BME280;60621;49.576;11.024;2023-02-21T05:00:46;98666.56;;;7.07;70.88
72587;BME280;60621;49.576;11.024;2023-02-21T05:01:48;98667.09;;;7.00;71.53
72587;BME280;60621;49.576;11.024;2023-02-21T05:02:49;98662.56;;;7.09;71.23
72587;BME280;60621;49.576;11.024;2023-02-21T05:03:51;98669.31;;;7.10;71.27
72587;BME280;60621;49.576;11.024;2023-02-21T05:04:52;98664.97;;;7.14;71.52
72587;BME280;60621;49.576;11.024;2023-02-21T05:05:54;98663.88;;;7.15;71.48
72587;BME280;60621;49.576;11.024;2023-02-21T05:06:57;98665.88;;;7.18;71.24
72587;BME280;60621;49.576;11.024;2023-02-21T05:07:59;98665.66;;;7.24;70.89
72587;BME280;60621;49.576;11.024;2023-02-21T05:09:01;98660.56;;;7.27;71.21
72587;BME280;60621;49.576;11.024;2023-02-21T05:10:03;98657.59;;;7.29;70.91
72587;BME280;60621;49.576;11.024;2023-02-21T05:11:05;98660.63;;;7.18;70.95
72587;BME280;60621;49.576;11.024;2023-02-21T05:12:09;98659.16;;;7.09;71.76
72587;BME280;60621;49.576;11.024;2023-02-21T05:13:13;98657.88;;;7.15;71.56
72587;BME280;60621;49.576;11.024;2023-02-21T05:14:14;98657.03;;;7.02;72.01
72587;BME280;60621;49.576;11.024;2023-02-21T05:15:18;98658.09;;;6.89;72.26
72587;BME280;60621;49.576;11.024;2023-02-21T05:16:19;98654.75;;;7.01;72.50
72587;BME280;60621;49.576;11.024;2023-02-21T05:17:21;98648.97;;;7.07;71.60
72587;BME280;60621;49.576;11.024;2023-02-21T05:18:23;98653.72;;;7.14;71.30
72587;BME280;60621;49.576;11.024;2023-02-21T05:19:29;98650.56;;;7.21;70.61
72587;BME280;60621;49.576;11.024;2023-02-21T05:20:30;98648.06;;;7.24;71.14
72587;BME280;60621;49.576;11.024;2023-02-21T05:21:34;98648.19;;;7.28;70.92
72587;BME280;60621;49.576;11.024;2023-02-21T05:22:39;98648.13;;;7.36;70.37
72587;BME280;60621;49.576;11.024;2023-02-21T05:23:41;98651.38;;;7.33;70.76
72587;BME280;60621;49.576;11.024;2023-02-21T05:24:55;98653.66;;;7.35;70.67
72587;BME280;60621;49.576;11.024;2023-02-21T05:25:57;98652.91;;;7.34;70.64
72587;BME280;60621;49.576;11.024;2023-02-21T05:26:59;98652.06;;;7.42;70.24
72587;BME280;60621;49.576;11.024;2023-02-21T05:28:01;98658.06;;;7.43;70.14
72587;BME280;60621;49.576;11.024;2023-02-21T05:29:03;98654.91;;;7.37;70.41
72587;BME280;60621;49.576;11.024;2023-02-21T05:30:05;98650.56;;;7.21;70.87
72587;BME280;60621;49.576;11.024;2023-02-21T05:31:07;98648.97;;;7.07;71.70
72587;BME280;60621;49.576;11.024;2023-02-21T05:32:09;98645.28;;;7.08;71.59
72587;BME280;60621;49.576;11.024;2023-02-21T05:33:10;98646.69;;;7.06;71.60
72587;BME280;60621;49.576;11.024;2023-02-21T05:34:12;98651.50;;;7.04;71.90
72587;BME280;60621;49.576;11.024;2023-02-21T05:35:16;98641.69;;;7.13;71.75
72587;BME280;60621;49.576;11.024;2023-02-21T05:36:17;98645.31;;;7.21;71.67
72587;BME280;60621;49.576;11.024;2023-02-21T05:37:19;98646.97;;;7.25;71.49
72587;BME280;60621;49.576;11.024;2023-02-21T05:38:23;98650.06;;;7.27;71.32
72587;BME280;60621;49.576;11.024;2023-02-21T05:39:25;98656.19;;;7.31;71.27
72587;BME280;60621;49.576;11.024;2023-02-21T05:40:26;98652.16;;;7.34;71.44
72587;BME280;60621;49.576;11.024;2023-02-21T05:41:28;98649.19;;;7.35;71.58
72587;BME280;60621;49.576;11.024;2023-02-21T05:42:30;98654.34;;;7.44;71.08
72587;BME280;60621;49.576;11.024;2023-02-21T05:43:31;98648.34;;;7.43;70.61
72587;BME280;60621;49.576;11.024;2023-02-21T05:44:34;98652.19;;;7.46;70.64
72587;BME280;60621;49.576;11.024;2023-02-21T05:45:36;98659.53;;;7.53;70.65
72587;BME280;60621;49.576;11.024;2023-02-21T05:46:37;98650.78;;;7.61;70.49
72587;BME280;60621;49.576;11.024;2023-02-21T05:47:39;98652.75;;;7.64;70.25
72587;BME280;60621;49.576;11.024;2023-02-21T05:48:40;98650.03;;;7.60;70.06
72587;BME280;60621;49.576;11.024;2023-02-21T05:49:42;98654.41;;;7.56;70.42
72587;BME280;60621;49.576;11.024;2023-02-21T05:50:44;98651.66;;;7.53;70.62
72587;BME280;60621;49.576;11.024;2023-02-21T05:51:46;98657.44;;;7.46;70.86
72587;BME280;60621;49.576;11.024;2023-02-21T05:52:47;98652.28;;;7.37;70.98
72587;BME280;60621;49.576;11.024;2023-02-21T05:53:49;98657.44;;;7.46;71.31
72587;BME280;60621;49.576;11.024;2023-02-21T05:54:51;98652.94;;;7.47;70.99
72587;BME280;60621;49.576;11.024;2023-02-21T05:55:52;98655.13;;;7.44;70.99
72587;BME280;60621;49.576;11.024;2023-02-21T05:56:54;98651.09;;;7.47;71.06
72587;BME280;60621;49.576;11.024;2023-02-21T05:57:55;98651.66;;;7.53;71.03
72587;BME280;60621;49.576;11.024;2023-02-21T05:58:57;98654.91;;;7.50;71.27
72587;BME280;60621;49.576;11.024;2023-02-21T05:59:59;98649.66;;;7.50;71.25
72587;BME280;60621;49.576;11.024;2023-02-21T06:01:01;98651.53;;;7.49;71.51
72587;BME280;60621;49.576;11.024;2023-02-21T06:02:02;98648.91;;;7.49;71.37
72587;BME280;60621;49.576;11.024;2023-02-21T06:03:04;98648.25;;;7.52;71.58
72587;BME280;60621;49.576;11.024;2023-02-21T06:04:06;98654.41;;;7.56;71.16
72587;BME280;60621;49.576;11.024;2023-02-21T06:05:08;98652.97;;;7.59;71.52
72587;BME280;60621;49.576;11.024;2023-02-21T06:06:09;98651.31;;;7.54;71.49
72587;BME280;60621;49.576;11.024;2023-02-21T06:07:11;98645.41;;;7.57;71.22
72587;BME280;60621;49.576;11.024;2023-02-21T06:08:12;98657.25;;;7.63;71.41
72587;BME280;60621;49.576;11.024;2023-02-21T06:09:14;98652.13;;;7.67;70.96
72587;BME280;60621;49.576;11.024;2023-02-21T06:10:16;98653.63;;;7.68;70.50
72587;BME280;60621;49.576;11.024;2023-02-21T06:11:28;98654.41;;;7.68;70.85
72587;BME280;60621;49.576;11.024;2023-02-21T06:12:33;98661.22;;;7.69;71.07
72587;BME280;60621;49.576;11.024;2023-02-21T06:13:34;98662.53;;;7.76;70.86
72587;BME280;60621;49.576;11.024;2023-02-21T06:14:36;98662.66;;;7.79;70.39
72587;BME280;60621;49.576;11.024;2023-02-21T06:15:37;98663.06;;;7.81;70.60
72587;BME280;60621;49.576;11.024;2023-02-21T06:16:39;98660.78;;;7.80;70.74
72587;BME280;60621;49.576;11.024;2023-02-21T06:17:41;98662.75;;;7.83;70.65
72587;BME280;60621;49.576;11.024;2023-02-21T06:18:43;98660.22;;;7.86;70.31
72587;BME280;60621;49.576;11.024;2023-02-21T06:19:44;98659.25;;;7.91;69.94
72587;BME280;60621;49.576;11.024;2023-02-21T06:20:46;98658.50;;;7.90;69.99
72587;BME280;60621;49.576;11.024;2023-02-21T06:21:47;98662.00;;;7.94;69.99
72587;BME280;60621;49.576;11.024;2023-02-21T06:22:49;98664.41;;;8.00;69.49
72587;BME280;60621;49.576;11.024;2023-02-21T06:23:51;98658.50;;;7.90;70.32
72587;BME280;60621;49.576;11.024;2023-02-21T06:24:52;98658.38;;;7.87;69.75
72587;BME280;60621;49.576;11.024;2023-02-21T06:25:54;98663.84;;;7.69;70.31
72587;BME280;60621;49.576;11.024;2023-02-21T06:26:55;98660.06;;;7.58;71.24
72587;BME280;60621;49.576;11.024;2023-02-21T06:27:57;98662.50;;;7.63;71.03
72587;BME280;60621;49.576;11.024;2023-02-21T06:28:59;98663.50;;;7.71;70.23
72587;BME280;60621;49.576;11.024;2023-02-21T06:30:01;98661.94;;;7.58;71.16
72587;BME280;60621;49.576;11.024;2023-02-21T06:31:04;98663.44;;;7.47;71.30
72587;BME280;60621;49.576;11.024;2023-02-21T06:32:05;98662.91;;;7.53;71.77